Friday, January 19, 2018, 10:30 PM EST
Back to Local

KWAL, Wallops Flight Fac Airport

Location: Wallops Island, VA, United States Lat: 37.933
Local Time: 10:30 PM EST ( 3:30 GMT) Lon: -75.467
Time Zone: US/Eastern Elev: 39 ft

Show me the last for .
Show Coded

Time T Td Feel RH Dir Speed Gust Alt SLP Vis Weather Sky Remarks
2018-01-19 21:54 33 21 26 60 210° 8 - 30.09 30.07 10 CLR None
2018-01-19 20:54 29 20 21 68 180° 8 - 30.09 30.08 10 CLR None
2018-01-19 19:54 29 20 - 68 - Calm - 30.10 30.09 10 CLR None
2018-01-19 18:54 32 21 - 63 - Calm - 30.09 30.08 10 CLR 6-hr Min Temp (7pm): 30.9°F
6-hr Max Temp (7pm): 50.0°F
2018-01-19 17:54 36 21 - 54 - Calm - 30.09 30.08 10 CLR None
2018-01-19 16:54 43 21 41 41 210° 3 - 30.08 30.07 10 CLR None
2018-01-19 15:54 46 22 43 38 230° 6 - 30.09 30.08 10 CLR None
2018-01-19 14:54 46 25 41 43 190° 12 - 30.08 30.07 10 CLR None
2018-01-19 13:54 47 25 42 41 180° 10 - 30.08 30.07 10 FEW250 None
2018-01-19 12:54 50 18 - 27 - Calm - 30.09 30.08 10 FEW250 6-hr Min Temp (1pm): 25.0°F
6-hr Max Temp (1pm): 50.0°F
2018-01-19 11:54 48 19 46 31 330° 5 - 30.14 30.13 10 FEW250 None
2018-01-19 10:54 44 22 41 41 280° 6 - 30.17 30.16 10 FEW250 None
2018-01-19 09:54 41 21 38 44 260° 5 - 30.17 30.16 10 FEW250 None
2018-01-19 08:54 35 21 32 56 220° 3 - 30.16 30.15 10 FEW250 None
2018-01-19 07:54 27 21 - 77 - Calm - 30.15 30.14 10 FEW200 None
2018-01-19 06:54 31 19 24 60 240° 7 - 30.14 30.13 10 CLR 6-hr Min Temp (7am): 25.0°F
6-hr Max Temp (7am): 32.0°F
2018-01-19 05:54 29 20 25 68 270° 3 - 30.12 30.11 10 CLR None
2018-01-19 04:54 25 19 - 77 - Calm - 30.11 30.10 10 CLR None
2018-01-19 03:54 32 20 25 60 260° 8 - 30.12 30.11 10 CLR None
2018-01-19 02:54 32 20 26 60 270° 7 - 30.13 30.12 10 CLR None
2018-01-19 01:54 32 21 26 63 260° 7 - 30.14 30.13 10 CLR None
2018-01-19 00:54 32 22 27 65 260° 5 - 30.14 30.13 10 CLR 6-hr Min Temp (1am): 30.9°F
6-hr Max Temp (1am): 34.0°F
2018-01-18 23:54 32 21 26 63 240° 7 - 30.16 30.15 10 CLR 24-hr Min Temp (12am): 21.0°F
24-hr Max Temp (12am): 37.0°F
2018-01-18 22:54 32 22 26 65 240° 6 - 30.15 30.14 10 CLR None

Support USWX by starting your Amazon purchase here.